Terminal Aerodrome Forecast
Issued by NWS St Louis, MO

Home | Current Version | Previous Version | Text Only | Print | Product List | Glossary On
Versions: 1 2 3 4 5 6 7 8 9 10 11 12 13 14 15 16 17 18 19 20 21 22 23 24 25
000
FTUS43 KLSX 240904 AAA
TAFSTL
TAF AMD
KSTL 240904Z 2409/2512 32005KT P6SM FEW250
     FM241800 31011KT P6SM SCT200
     FM250000 31006KT P6SM FEW200
     FM250300 VRB03KT P6SM SCT250=

USA.gov is the U.S. government's official web portal to all federal, state and local government web resources and services.